Time;durP1;ratioP1;P1;durP2;ratioP2;P2;SDS_P1;SDS_P2;PMS_P1;PMS_P2;Temp;Humidity;BMP_temperature;BMP_pressure;BME280_temperature;BME280_humidity;BME280_pressure;Samples;Min_cycle;Max_cycle;Signal;HPM_P1;HPM_P2
2022/05/01 00:00:39;;;;;;;7.67;5.03;;;12.40;99.90;;;;;;6222445;23;20404;-54
2022/05/01 00:03:07;;;;;;;5.80;4.60;;;12.40;99.90;;;;;;6220538;23;20455;-56
2022/05/01 00:05:34;;;;;;;9.17;5.17;;;12.40;99.90;;;;;;6220447;23;20815;-55
2022/05/01 00:08:04;;;;;;;8.07;4.90;;;12.40;99.90;;;;;;6220190;23;20470;-56
2022/05/01 00:10:30;;;;;;;11.03;4.83;;;12.40;99.90;;;;;;6220619;23;20424;-52
2022/05/01 00:12:57;;;;;;;8.77;5.00;;;12.40;99.90;;;;;;6220789;23;20427;-57
2022/05/01 00:15:24;;;;;;;5.90;4.80;;;12.40;99.90;;;;;;6220648;23;20432;-54
2022/05/01 00:17:50;;;;;;;11.60;5.10;;;12.40;99.90;;;;;;6220495;23;20404;-55
2022/05/01 00:20:18;;;;;;;7.23;4.53;;;12.30;99.90;;;;;;6220340;23;20431;-56
2022/05/01 00:22:46;;;;;;;7.50;4.67;;;12.30;99.90;;;;;;6219943;23;20497;-55
2022/05/01 00:25:13;;;;;;;8.37;4.60;;;12.40;99.90;;;;;;6220557;23;20685;-54
2022/05/01 00:27:42;;;;;;;4.77;3.90;;;12.30;99.90;;;;;;6220211;23;20420;-51
2022/05/01 00:30:09;;;;;;;9.90;5.03;;;12.20;99.90;;;;;;6221746;23;20495;-56
2022/05/01 00:38:06;;;;;;;7.87;4.60;;;12.10;99.90;;;;;;6220421;23;20518;-55
2022/05/01 00:40:33;;;;;;;6.63;4.17;;;12.10;99.90;;;;;;6219826;23;20420;-55
2022/05/01 00:43:04;;;;;;;6.40;4.47;;;12.10;99.90;;;;;;6219954;23;20510;-57
2022/05/01 00:45:31;;;;;;;6.83;4.33;;;12.10;99.90;;;;;;6220141;23;20462;-55
2022/05/01 00:47:57;;;;;;;4.93;3.87;;;12.00;99.90;;;;;;6220255;23;20434;-55
2022/05/01 00:50:26;;;;;;;6.13;4.10;;;12.00;99.90;;;;;;6220612;23;20399;-56
2022/05/01 00:52:53;;;;;;;6.67;3.80;;;12.00;99.90;;;;;;6220402;23;20471;-52
2022/05/01 00:55:22;;;;;;;6.87;4.00;;;12.00;99.90;;;;;;6220711;23;20404;-55
2022/05/01 00:57:51;;;;;;;7.00;4.73;;;12.00;99.90;;;;;;6220430;23;20417;-56
2022/05/01 01:00:19;;;;;;;5.00;4.07;;;12.00;99.90;;;;;;6220321;23;20443;-53
2022/05/01 01:02:47;;;;;;;7.37;4.90;;;11.90;99.90;;;;;;6221049;23;20507;-56
2022/05/01 01:05:14;;;;;;;8.20;4.50;;;11.90;99.90;;;;;;6222064;23;20435;-57
2022/05/01 01:07:43;;;;;;;11.20;4.97;;;11.80;99.90;;;;;;6221875;23;20416;-57
2022/05/01 01:10:10;;;;;;;6.90;3.33;;;11.80;99.90;;;;;;6220410;23;20917;-52
2022/05/01 01:12:54;;;;;;;12.77;4.80;;;11.80;99.90;;;;;;6220226;23;20396;-57
2022/05/01 01:15:26;;;;;;;10.60;4.80;;;11.80;99.90;;;;;;6219508;23;20462;-52
2022/05/01 01:17:54;;;;;;;12.90;4.50;;;11.80;99.90;;;;;;6220232;23;20396;-56
2022/05/01 01:20:23;;;;;;;8.10;4.10;;;11.80;99.90;;;;;;6220279;23;20511;-56
2022/05/01 01:22:53;;;;;;;10.27;3.50;;;11.90;99.90;;;;;;6220089;23;20444;-56
2022/05/01 01:25:22;;;;;;;8.03;5.27;;;11.80;99.90;;;;;;6219886;23;20842;-57
2022/05/01 01:27:49;;;;;;;6.60;3.50;;;11.90;99.90;;;;;;6219359;23;20434;-56
2022/05/01 01:33:02;;;;;;;8.00;3.70;;;11.90;99.90;;;;;;6219622;23;20873;-52
2022/05/01 01:35:33;;;;;;;9.33;4.03;;;11.90;99.90;;;;;;6219197;23;20423;-55
2022/05/01 01:38:01;;;;;;;7.97;3.90;;;11.90;99.90;;;;;;6219553;23;20498;-54
2022/05/01 01:40:32;;;;;;;6.93;4.17;;;11.80;99.90;;;;;;6220153;23;20419;-55
2022/05/01 01:43:00;;;;;;;5.80;3.80;;;11.80;99.90;;;;;;6219838;23;20498;-55
2022/05/01 01:45:28;;;;;;;6.13;4.00;;;11.80;99.90;;;;;;6219718;23;20403;-56
2022/05/01 01:47:55;;;;;;;7.50;3.90;;;11.80;99.90;;;;;;6219832;23;20450;-56
2022/05/01 01:50:23;;;;;;;5.77;3.20;;;11.80;99.90;;;;;;6220016;23;20432;-54
2022/05/01 01:52:50;;;;;;;8.73;3.73;;;11.80;99.90;;;;;;6220819;23;20412;-55
2022/05/01 01:55:19;;;;;;;7.80;4.03;;;11.80;99.90;;;;;;6221203;23;20438;-56
2022/05/01 01:57:46;;;;;;;5.60;4.03;;;11.90;99.90;;;;;;6221652;23;20443;-55
2022/05/01 02:00:14;;;;;;;11.20;4.37;;;11.90;99.90;;;;;;6221888;23;20443;-55
2022/05/01 02:02:41;;;;;;;6.23;4.00;;;11.90;99.90;;;;;;6220153;23;20424;-56
2022/05/01 02:05:08;;;;;;;13.50;3.77;;;11.80;99.90;;;;;;6219698;23;20408;-55
2022/05/01 02:07:35;;;;;;;4.70;3.33;;;11.80;99.90;;;;;;6219602;23;20416;-56
2022/05/01 02:10:03;;;;;;;9.47;4.93;;;11.70;99.90;;;;;;6220252;23;20404;-58
2022/05/01 02:12:31;;;;;;;6.00;3.90;;;11.70;99.90;;;;;;6222192;23;20428;-56
2022/05/01 02:15:02;;;;;;;6.40;3.83;;;11.70;99.90;;;;;;6221113;23;20419;-53
2022/05/01 02:17:28;;;;;;;9.27;4.53;;;11.60;99.90;;;;;;6219935;23;20432;-56
2022/05/01 02:19:55;;;;;;;12.40;4.20;;;11.60;99.90;;;;;;6220288;23;20491;-54
2022/05/01 02:22:22;;;;;;;8.67;4.70;;;11.50;99.90;;;;;;6219620;23;20466;-52
2022/05/01 02:24:50;;;;;;;9.13;4.60;;;11.50;99.90;;;;;;6219405;23;20435;-57
2022/05/01 02:27:17;;;;;;;6.63;4.20;;;11.40;99.90;;;;;;6219436;23;20420;-53
2022/05/01 02:29:47;;;;;;;6.20;4.70;;;11.40;99.90;;;;;;6219660;23;20722;-56
2022/05/01 02:32:14;;;;;;;6.53;4.20;;;11.30;99.90;;;;;;6219476;23;20396;-55
2022/05/01 02:34:41;;;;;;;9.27;3.87;;;11.30;99.90;;;;;;6219521;23;20424;-55
2022/05/01 02:37:08;;;;;;;6.57;3.80;;;11.30;99.90;;;;;;6219071;23;20427;-51
2022/05/01 02:39:35;;;;;;;4.47;3.50;;;11.30;99.90;;;;;;6219169;23;20515;-55
2022/05/01 02:42:02;;;;;;;5.33;4.37;;;11.30;99.90;;;;;;6219535;23;20427;-54
2022/05/01 02:44:28;;;;;;;9.20;4.20;;;11.30;99.90;;;;;;6218608;23;20444;-55
2022/05/01 02:46:57;;;;;;;6.40;3.87;;;11.20;99.90;;;;;;6219827;23;20733;-55
2022/05/01 02:49:23;;;;;;;6.20;4.37;;;11.20;99.90;;;;;;6219474;23;20427;-56
2022/05/01 02:51:53;;;;;;;4.93;3.57;;;11.10;99.90;;;;;;6219620;23;20408;-56
2022/05/01 02:54:20;;;;;;;8.17;4.20;;;11.10;99.90;;;;;;6219965;23;20921;-56
2022/05/01 02:56:49;;;;;;;7.73;5.87;;;11.10;99.90;;;;;;6219581;23;20416;-56
2022/05/01 02:59:16;;;;;;;5.33;3.17;;;11.00;99.90;;;;;;6220060;23;20400;-56
2022/05/01 03:01:43;;;;;;;5.87;3.90;;;11.00;99.90;;;;;;6219268;23;20494;-54
2022/05/01 03:04:11;;;;;;;5.40;3.37;;;11.00;99.90;;;;;;6219408;23;20443;-55
2022/05/01 03:06:38;;;;;;;6.23;3.80;;;11.00;99.90;;;;;;6219915;23;20435;-54
2022/05/01 03:09:08;;;;;;;6.77;3.97;;;11.10;99.90;;;;;;6219483;23;20466;-54
2022/05/01 03:11:35;;;;;;;16.10;3.77;;;11.10;99.90;;;;;;6219912;23;20407;-55
2022/05/01 03:14:02;;;;;;;4.60;3.70;;;11.00;99.90;;;;;;6219312;23;20416;-52
2022/05/01 03:16:31;;;;;;;3.80;3.37;;;11.00;99.90;;;;;;6219581;23;20408;-56
2022/05/01 03:24:30;;;;;;;5.70;3.40;;;10.90;99.90;;;;;;6214082;23;20479;-56
2022/05/01 03:26:57;;;;;;;6.77;3.60;;;10.90;99.90;;;;;;6221612;23;20470;-55
2022/05/01 03:29:24;;;;;;;8.50;4.47;;;10.90;99.90;;;;;;6221506;23;21085;-53
2022/05/01 03:31:54;;;;;;;8.23;3.50;;;10.80;99.90;;;;;;6221807;23;20917;-54
2022/05/01 03:34:22;;;;;;;4.60;3.83;;;10.80;99.90;;;;;;6222485;23;20404;-55
2022/05/01 03:36:53;;;;;;;6.63;3.50;;;10.80;99.90;;;;;;6221138;23;20419;-56
2022/05/01 03:39:20;;;;;;;6.10;3.87;;;10.80;99.90;;;;;;6221220;23;20419;-56
2022/05/01 03:41:50;;;;;;;6.43;3.90;;;10.80;99.90;;;;;;6221505;23;20431;-55
2022/05/01 03:44:16;;;;;;;3.60;2.93;;;10.80;99.90;;;;;;6220383;23;20443;-54
2022/05/01 03:46:43;;;;;;;6.40;4.50;;;10.80;99.90;;;;;;6221727;23;20431;-54
2022/05/01 03:49:13;;;;;;;7.83;3.23;;;10.80;99.90;;;;;;6221144;23;20439;-55
2022/05/01 03:51:39;;;;;;;7.20;3.77;;;10.80;99.90;;;;;;6221373;23;20707;-52
2022/05/01 03:54:07;;;;;;;5.33;3.80;;;10.80;99.90;;;;;;6223079;23;20718;-54
2022/05/01 03:56:34;;;;;;;7.23;4.00;;;10.80;99.90;;;;;;6222864;23;20404;-56
2022/05/01 03:59:04;;;;;;;4.87;3.77;;;10.80;99.90;;;;;;6222126;23;20442;-56
2022/05/01 04:01:31;;;;;;;7.30;3.97;;;10.80;99.90;;;;;;6221301;23;20432;-58
2022/05/01 04:03:58;;;;;;;6.30;3.23;;;10.80;99.90;;;;;;6221913;23;20448;-56
2022/05/01 04:06:24;;;;;;;5.13;3.43;;;10.80;99.90;;;;;;6221425;23;20404;-54
2022/05/01 04:08:51;;;;;;;4.27;2.50;;;10.80;99.90;;;;;;6221443;23;20432;-57
2022/05/01 04:11:19;;;;;;;6.80;3.90;;;10.80;99.90;;;;;;6221163;23;20416;-56
2022/05/01 04:13:47;;;;;;;5.67;4.07;;;10.80;99.90;;;;;;6221259;23;20930;-53
2022/05/01 04:16:13;;;;;;;5.10;3.20;;;10.80;99.90;;;;;;6221242;23;20739;-56
2022/05/01 04:18:40;;;;;;;11.90;4.30;;;10.80;99.90;;;;;;6220708;23;20483;-52
2022/05/01 04:21:07;;;;;;;5.90;3.40;;;10.80;99.90;;;;;;6221108;23;20416;-56
2022/05/01 04:23:34;;;;;;;4.73;3.40;;;10.80;99.90;;;;;;6221233;23;20459;-56
2022/05/01 04:26:00;;;;;;;6.83;3.90;;;10.80;99.90;;;;;;6222901;23;20420;-54
2022/05/01 04:28:28;;;;;;;6.43;4.40;;;10.80;99.90;;;;;;6223503;23;20431;-55
2022/05/01 04:30:59;;;;;;;5.83;3.57;;;10.80;99.90;;;;;;6221196;23;20416;-56
2022/05/01 04:33:25;;;;;;;9.77;3.77;;;10.90;99.90;;;;;;6220895;23;20400;-55
2022/05/01 04:35:52;;;;;;;4.93;3.10;;;10.90;99.90;;;;;;6220815;23;20420;-56
2022/05/01 04:38:20;;;;;;;9.00;3.70;;;10.90;99.90;;;;;;6221032;23;20455;-56
2022/05/01 04:40:52;;;;;;;5.60;3.73;;;10.90;99.90;;;;;;6220742;23;20418;-53
2022/05/01 04:43:24;;;;;;;5.43;3.43;;;11.00;99.90;;;;;;6221066;23;20424;-55
2022/05/01 04:45:56;;;;;;;3.00;2.60;;;10.90;99.90;;;;;;6221144;23;20656;-56
2022/05/01 04:48:24;;;;;;;6.73;3.70;;;11.00;99.90;;;;;;6220554;23;20494;-56
2022/05/01 04:50:52;;;;;;;4.57;2.67;;;11.00;99.90;;;;;;6221169;23;20408;-55
2022/05/01 04:53:21;;;;;;;6.60;4.10;;;11.00;99.90;;;;;;6220905;23;20486;-56
2022/05/01 04:55:52;;;;;;;6.17;3.33;;;11.00;99.90;;;;;;6220062;23;20416;-52
2022/05/01 04:58:20;;;;;;;10.50;3.43;;;11.10;99.90;;;;;;6220533;23;20435;-55
2022/05/01 05:00:53;;;;;;;6.63;2.80;;;11.10;99.90;;;;;;6220516;23;20419;-53
2022/05/01 05:03:21;;;;;;;4.43;2.80;;;11.00;99.90;;;;;;6220588;23;20396;-52
2022/05/01 05:05:49;;;;;;;6.50;4.20;;;11.00;99.90;;;;;;6220759;23;20442;-55
2022/05/01 05:11:03;;;;;;;5.80;3.30;;;11.10;99.90;;;;;;6221020;23;20431;-53
2022/05/01 05:13:33;;;;;;;5.97;3.07;;;11.20;99.90;;;;;;6220120;23;20867;-55
2022/05/01 05:16:00;;;;;;;6.60;6.00;;;11.30;99.90;;;;;;6220093;23;20435;-55
2022/05/01 05:18:28;;;;;;;5.20;3.07;;;11.30;99.90;;;;;;6220544;23;20404;-55
2022/05/01 05:20:55;;;;;;;6.83;2.90;;;11.30;99.90;;;;;;6220122;23;20494;-55
2022/05/01 05:23:21;;;;;;;4.20;3.20;;;11.40;99.90;;;;;;6220338;23;20454;-55
2022/05/01 05:25:48;;;;;;;14.10;3.53;;;11.40;99.90;;;;;;6220502;23;20404;-55
2022/05/01 05:28:15;;;;;;;4.10;3.43;;;11.50;99.90;;;;;;6220111;23;20438;-55
2022/05/01 05:30:42;;;;;;;5.37;2.90;;;11.50;99.90;;;;;;6219878;23;20399;-54
2022/05/01 05:33:09;;;;;;;6.70;3.10;;;11.60;99.90;;;;;;6222065;23;20413;-56
2022/05/01 05:35:37;;;;;;;3.70;3.30;;;11.50;99.90;;;;;;6222364;23;20913;-55
2022/05/01 05:38:04;;;;;;;6.67;3.40;;;11.60;99.90;;;;;;6220997;23;20454;-56
2022/05/01 05:40:33;;;;;;;3.57;2.80;;;11.70;99.90;;;;;;6219285;23;20420;-55
2022/05/01 05:43:04;;;;;;;3.97;3.13;;;11.80;99.90;;;;;;6220015;23;20428;-56
2022/05/01 05:45:31;;;;;;;4.13;2.93;;;11.90;99.90;;;;;;6220146;23;20428;-55
2022/05/01 05:47:57;;;;;;;3.60;2.70;;;11.90;99.90;;;;;;6220210;23;20404;-56
2022/05/01 05:50:24;;;;;;;3.27;2.50;;;12.00;99.90;;;;;;6219744;23;20438;-53
2022/05/01 05:52:53;;;;;;;5.30;3.63;;;12.10;99.90;;;;;;6219983;23;20415;-58
2022/05/01 05:55:19;;;;;;;4.80;3.43;;;12.20;99.90;;;;;;6219765;23;20424;-55
2022/05/01 05:57:46;;;;;;;4.37;2.93;;;12.30;99.90;;;;;;6220343;23;20412;-53
2022/05/01 06:00:14;;;;;;;4.00;3.23;;;12.30;99.90;;;;;;6221182;23;20468;-55
2022/05/01 06:02:42;;;;;;;5.97;2.97;;;12.40;99.90;;;;;;6224994;23;20388;-49
2022/05/01 06:05:09;;;;;;;7.67;3.60;;;12.50;99.90;;;;;;6218569;23;20448;-52
2022/05/01 06:07:37;;;;;;;4.13;2.60;;;12.70;99.90;;;;;;6218596;23;20388;-55
2022/05/01 06:10:05;;;;;;;5.43;2.83;;;12.80;99.90;;;;;;6217357;23;20416;-56
2022/05/01 06:12:32;;;;;;;4.23;3.20;;;13.00;99.90;;;;;;6217354;23;20462;-54
2022/05/01 06:14:59;;;;;;;4.00;2.90;;;13.20;99.90;;;;;;6217052;23;20707;-56
2022/05/01 06:17:26;;;;;;;11.80;3.30;;;13.30;99.90;;;;;;6217455;23;20431;-51
2022/05/01 06:19:59;;;;;;;4.13;2.70;;;13.40;99.90;;;;;;6231623;22;20392;-48
2022/05/01 06:22:25;;;;;;;4.60;2.50;;;13.50;99.90;;;;;;6243803;22;20407;-51
2022/05/01 06:24:52;;;;;;;3.73;2.63;;;13.50;99.90;;;;;;6243814;22;20439;-45
2022/05/01 06:27:29;;;;;;;6.53;2.60;;;13.60;99.90;;;;;;6243760;22;20383;-41
2022/05/01 06:29:57;;;;;;;6.03;3.10;;;13.60;99.90;;;;;;6244007;22;20392;-39
2022/05/01 06:32:24;;;;;;;4.27;2.60;;;13.60;99.90;;;;;;6243820;22;20427;-45
2022/05/01 06:34:52;;;;;;;5.00;3.00;;;13.70;99.90;;;;;;6243761;22;20388;-45
2022/05/01 06:37:21;;;;;;;8.33;3.40;;;13.70;99.60;;;;;;6243571;22;20419;-53
2022/05/01 06:39:47;;;;;;;6.70;2.63;;;13.70;99.10;;;;;;6243446;22;20420;-51
2022/05/01 06:42:17;;;;;;;3.40;2.80;;;13.80;99.00;;;;;;6243854;22;20509;-42
2022/05/01 06:44:47;;;;;;;5.03;2.40;;;13.80;98.90;;;;;;6243575;22;20431;-46
2022/05/01 06:47:14;;;;;;;6.80;3.20;;;13.90;98.80;;;;;;6243638;22;20380;-47
2022/05/01 06:49:44;;;;;;;7.67;3.30;;;14.00;98.90;;;;;;6243681;22;20396;-45
2022/05/01 06:52:10;;;;;;;7.20;3.20;;;14.00;98.90;;;;;;6244456;22;20381;-40
2022/05/01 06:54:37;;;;;;;4.17;2.73;;;14.10;98.80;;;;;;6245913;22;20384;-48
2022/05/01 06:57:04;;;;;;;7.60;3.37;;;14.10;98.70;;;;;;6245767;22;20439;-51
2022/05/01 06:59:33;;;;;;;4.40;3.70;;;14.20;98.90;;;;;;6246108;22;20403;-45
2022/05/01 07:02:00;;;;;;;10.03;4.00;;;14.30;98.80;;;;;;6246106;22;20386;-48
2022/05/01 07:04:30;;;;;;;4.13;2.87;;;14.40;98.40;;;;;;6245972;22;20442;-45
2022/05/01 07:06:56;;;;;;;4.93;3.00;;;14.50;98.20;;;;;;6245963;22;20399;-57
2022/05/01 07:09:26;;;;;;;6.30;3.30;;;14.60;98.20;;;;;;6246072;22;20399;-42
2022/05/01 07:11:58;;;;;;;3.57;2.70;;;14.70;97.80;;;;;;6246001;22;20420;-49
2022/05/01 07:14:28;;;;;;;5.93;3.30;;;14.90;97.80;;;;;;6246121;22;20368;-48
2022/05/01 07:17:01;;;;;;;6.40;3.13;;;14.90;97.40;;;;;;6245661;22;20410;-46
2022/05/01 07:19:29;;;;;;;5.13;3.00;;;15.10;97.10;;;;;;6245881;22;20383;-45
2022/05/01 07:21:56;;;;;;;5.50;2.90;;;15.20;96.90;;;;;;6245744;22;20424;-48
2022/05/01 07:24:25;;;;;;;5.53;2.83;;;15.30;96.60;;;;;;6245605;22;20416;-53
2022/05/01 07:26:52;;;;;;;6.23;3.63;;;15.40;96.20;;;;;;6245711;22;20438;-47
2022/05/01 07:29:19;;;;;;;7.87;2.90;;;15.60;95.60;;;;;;6245780;22;20426;-50
2022/05/01 07:31:50;;;;;;;4.97;3.10;;;15.70;95.10;;;;;;6245724;22;20396;-45
2022/05/01 07:34:17;;;;;;;4.60;2.90;;;15.80;94.80;;;;;;6245830;22;20364;-43
2022/05/01 07:36:49;;;;;;;4.80;3.43;;;16.00;94.10;;;;;;6245743;22;20408;-50
2022/05/01 07:39:21;;;;;;;3.73;2.40;;;16.30;93.90;;;;;;6245619;22;20369;-48
2022/05/01 07:41:47;;;;;;;5.20;3.47;;;16.50;93.00;;;;;;6245590;22;20423;-45
2022/05/01 07:44:14;;;;;;;7.23;5.00;;;16.90;92.40;;;;;;6245504;22;20416;-41
2022/05/01 07:46:41;;;;;;;3.80;3.20;;;17.40;91.60;;;;;;6245392;22;20584;-43
2022/05/01 07:49:09;;;;;;;4.23;2.97;;;18.00;90.70;;;;;;6245597;22;20443;-45
2022/05/01 07:51:36;;;;;;;10.70;3.30;;;18.60;88.80;;;;;;6245414;22;20430;-40
2022/05/01 07:54:05;;;;;;;4.03;2.93;;;19.40;85.40;;;;;;6245507;22;20392;-40
2022/05/01 07:56:35;;;;;;;3.60;2.80;;;20.10;81.20;;;;;;6245636;22;20416;-42
2022/05/01 07:59:02;;;;;;;5.90;3.10;;;21.30;74.90;;;;;;6245467;22;20418;-48
2022/05/01 08:01:28;;;;;;;5.80;3.00;;;22.60;71.30;;;;;;6224188;23;20949;-42
2022/05/01 08:06:40;;;;;;;4.73;2.77;;;25.30;58.70;;;;;;6222068;23;20454;-40
2022/05/01 08:09:09;;;;;;;6.40;3.50;;;26.50;53.80;;;;;;6222091;23;20406;-49
2022/05/01 08:11:36;;;;;;;7.10;2.70;;;27.30;50.00;;;;;;6221862;23;20427;-50
2022/05/01 08:14:03;;;;;;;8.03;3.80;;;28.00;48.00;;;;;;6222301;23;20400;-51
2022/05/01 08:16:30;;;;;;;4.17;3.73;;;28.30;46.00;;;;;;6222232;23;20782;-52
2022/05/01 08:21:41;;;;;;;9.40;4.13;;;27.80;44.80;;;;;;6221880;23;20462;-52
2022/05/01 08:24:09;;;;;;;6.83;3.63;;;27.20;44.60;;;;;;6221021;23;20384;-53
2022/05/01 08:26:36;;;;;;;4.20;3.40;;;26.60;45.10;;;;;;6220676;23;20438;-51
2022/05/01 08:29:03;;;;;;;3.30;2.83;;;26.10;45.20;;;;;;6220632;23;20396;-52
2022/05/01 08:31:30;;;;;;;7.83;3.43;;;25.50;46.30;;;;;;6221291;23;20427;-48
2022/05/01 08:33:56;;;;;;;5.73;3.40;;;24.90;47.40;;;;;;6230385;23;20365;-44
2022/05/01 08:36:24;;;;;;;5.33;3.53;;;24.60;47.90;;;;;;6241796;23;20404;-47
2022/05/01 08:38:50;;;;;;;6.00;3.40;;;24.70;48.10;;;;;;6242180;23;20398;-41
2022/05/01 08:41:18;;;;;;;5.07;3.03;;;24.60;47.80;;;;;;6242589;22;20495;-46
2022/05/01 08:43:45;;;;;;;6.37;3.70;;;24.20;47.70;;;;;;6242517;23;20418;-47
2022/05/01 08:46:32;;;;;;;7.23;3.90;;;23.40;48.30;;;;;;6242086;23;20458;-44
2022/05/01 08:49:03;;;;;;;3.50;2.70;;;22.80;49.60;;;;;;6242890;23;20423;-44
2022/05/01 08:51:32;;;;;;;6.87;3.60;;;22.30;50.70;;;;;;6242494;23;20407;-41
2022/05/01 08:54:00;;;;;;;2.90;2.60;;;21.80;51.40;;;;;;6242830;23;20411;-44
2022/05/01 08:56:28;;;;;;;4.57;3.00;;;21.40;52.20;;;;;;6242018;23;20442;-48
2022/05/01 08:58:55;;;;;;;6.23;2.93;;;21.20;53.10;;;;;;6241926;23;20444;-48
2022/05/01 09:01:22;;;;;;;6.03;3.70;;;21.00;53.40;;;;;;6242724;23;20400;-52
2022/05/01 09:03:49;;;;;;;7.53;3.13;;;20.80;54.30;;;;;;6241961;23;20408;-44
2022/05/01 09:06:16;;;;;;;9.50;3.50;;;20.50;54.50;;;;;;6241798;23;20419;-49
2022/05/01 09:08:44;;;;;;;4.10;3.07;;;20.30;55.40;;;;;;6241928;23;20467;-46
2022/05/01 09:13:56;;;;;;;5.47;4.17;;;19.90;56.50;;;;;;6242426;23;20419;-47
2022/05/01 09:16:23;;;;;;;6.37;4.43;;;19.70;56.80;;;;;;6241830;23;20404;-51
2022/05/01 09:18:49;;;;;;;4.67;3.63;;;19.50;57.40;;;;;;6242320;23;20428;-50
2022/05/01 09:21:16;;;;;;;3.37;2.83;;;19.30;58.50;;;;;;6242587;23;20394;-50
2022/05/01 09:23:44;;;;;;;4.93;3.80;;;19.10;59.10;;;;;;6242413;23;20460;-51
2022/05/01 09:26:13;;;;;;;4.73;3.07;;;19.00;59.60;;;;;;6241801;23;20478;-47
2022/05/01 09:28:49;;;;;;;9.00;3.97;;;18.80;60.10;;;;;;6241818;23;20447;-51
2022/05/01 09:31:17;;;;;;;7.37;3.90;;;18.50;61.10;;;;;;6242659;23;20395;-50
2022/05/01 09:33:43;;;;;;;5.97;3.83;;;18.40;61.10;;;;;;6242047;23;20435;-57
2022/05/01 09:36:34;;;;;;;7.00;3.50;;;18.30;61.80;;;;;;6241664;23;20406;-52
2022/05/01 09:39:05;;;;;;;4.10;3.63;;;18.20;62.80;;;;;;6242625;22;20456;-49
2022/05/01 09:41:32;;;;;;;6.63;3.40;;;18.10;63.60;;;;;;6242258;23;20423;-51
2022/05/01 09:44:00;;;;;;;8.67;4.00;;;18.10;63.60;;;;;;6241606;23;20404;-50
2022/05/01 09:46:32;;;;;;;7.60;3.17;;;18.00;64.10;;;;;;6241719;23;20440;-49
2022/05/01 09:49:03;;;;;;;7.43;3.93;;;18.10;64.60;;;;;;6241771;23;20415;-50
2022/05/01 09:51:32;;;;;;;6.87;3.20;;;18.10;65.00;;;;;;6241671;23;20411;-49
2022/05/01 09:53:59;;;;;;;6.10;3.50;;;18.20;65.00;;;;;;6240434;23;20520;-51
2022/05/01 09:56:26;;;;;;;5.20;2.93;;;18.20;65.50;;;;;;6240787;23;20384;-51
2022/05/01 09:58:58;;;;;;;5.40;3.40;;;18.30;65.40;;;;;;6240644;23;20427;-54
2022/05/01 10:01:25;;;;;;;10.73;3.70;;;18.30;65.10;;;;;;6241795;23;20460;-45
2022/05/01 10:03:53;;;;;;;4.10;3.20;;;18.30;64.50;;;;;;6241282;23;20422;-42
2022/05/01 10:06:20;;;;;;;6.70;3.23;;;18.20;65.90;;;;;;6241823;23;20425;-52
2022/05/01 10:08:48;;;;;;;6.63;3.93;;;18.10;65.10;;;;;;6241743;23;20400;-50
2022/05/01 10:11:17;;;;;;;9.93;3.30;;;18.10;65.90;;;;;;6240657;23;20478;-47
2022/05/01 10:13:48;;;;;;;9.30;3.63;;;18.00;66.20;;;;;;6240893;23;20408;-50
2022/05/01 10:16:16;;;;;;;9.90;3.73;;;17.90;66.00;;;;;;6240643;23;20373;-55
2022/05/01 10:18:44;;;;;;;7.10;2.67;;;17.80;65.90;;;;;;6240758;23;20404;-48
2022/05/01 10:21:13;;;;;;;4.13;3.10;;;17.70;65.80;;;;;;6240828;23;20442;-48
2022/05/01 10:23:41;;;;;;;4.93;3.00;;;17.60;66.60;;;;;;6241673;23;20396;-42
2022/05/01 10:26:14;;;;;;;3.40;2.40;;;17.60;66.40;;;;;;6241310;23;20515;-50
2022/05/01 10:29:07;;;;;;;5.10;3.00;;;17.50;66.60;;;;;;6240686;23;20823;-52
2022/05/01 10:35:04;;;;;;;3.27;2.80;;;17.50;67.60;;;;;;6236100;23;20403;-52
2022/05/01 10:38:02;;;;;;;3.57;2.40;;;17.50;67.00;;;;;;6220776;23;20420;-49
2022/05/01 10:40:36;;;;;;;6.33;2.87;;;17.40;65.50;;;;;;6219714;23;20443;-45
2022/05/01 10:43:27;;;;;;;3.10;2.00;;;17.30;65.00;;;;;;6221781;23;20392;-48
2022/05/01 10:45:55;;;;;;;5.17;2.00;;;17.20;64.50;;;;;;6220732;23;20444;-55
2022/05/01 10:48:36;;;;;;;4.60;2.20;;;17.20;65.10;;;;;;6221891;23;20540;-54
2022/05/01 10:51:40;;;;;;;4.57;3.10;;;17.10;65.50;;;;;;6224686;23;20423;-49
2022/05/01 10:54:37;;;;;;;3.50;2.00;;;17.10;64.40;;;;;;6214548;23;20420;-51
2022/05/01 10:57:14;;;;;;;3.47;2.50;;;17.10;64.80;;;;;;6241660;23;20411;-48
2022/05/01 10:59:46;;;;;;;4.83;2.70;;;17.10;64.20;;;;;;6241397;22;20455;-48
2022/05/01 11:02:25;;;;;;;2.70;2.33;;;17.00;64.40;;;;;;6241493;23;20435;-44
2022/05/01 11:04:55;;;;;;;2.93;2.03;;;17.00;64.80;;;;;;6241182;23;20414;-49
2022/05/01 11:07:23;;;;;;;3.77;2.17;;;16.90;64.80;;;;;;6241811;23;20420;-48
2022/05/01 11:09:51;;;;;;;5.47;2.90;;;17.00;64.70;;;;;;6241569;22;20376;-43
2022/05/01 11:12:22;;;;;;;7.00;2.40;;;16.90;64.60;;;;;;6241683;23;20411;-53
2022/05/01 11:14:54;;;;;;;9.40;2.60;;;16.90;65.50;;;;;;6241059;23;20395;-49
2022/05/01 11:17:52;;;;;;;4.53;2.80;;;16.90;65.10;;;;;;6241875;22;20424;-50
2022/05/01 11:20:31;;;;;;;2.83;2.53;;;16.90;65.40;;;;;;6241569;23;20460;-52
2022/05/01 11:22:58;;;;;;;2.60;2.10;;;17.00;65.10;;;;;;6241013;23;20423;-47
2022/05/01 11:25:38;;;;;;;4.50;2.47;;;17.00;65.60;;;;;;6241115;23;20439;-47
2022/05/01 11:28:05;;;;;;;6.03;3.20;;;17.00;65.90;;;;;;6238502;23;20443;-48
2022/05/01 11:30:37;;;;;;;3.20;2.17;;;17.00;65.60;;;;;;6224506;23;20404;-50
2022/05/01 11:33:06;;;;;;;2.27;2.07;;;17.00;65.70;;;;;;6220676;23;20756;-53
2022/05/01 11:35:55;;;;;;;6.23;2.40;;;17.00;64.60;;;;;;6221714;23;20512;-47
2022/05/01 11:38:23;;;;;;;5.97;2.43;;;17.00;65.30;;;;;;6211296;23;20432;-53
2022/05/01 11:41:01;;;;;;;4.73;2.63;;;17.00;64.60;;;;;;6223907;23;20444;-51
2022/05/01 11:43:29;;;;;;;4.60;2.37;;;17.00;65.20;;;;;;6223621;23;20448;-48
2022/05/01 11:45:56;;;;;;;5.77;3.00;;;17.00;65.10;;;;;;6223550;23;20758;-53
2022/05/01 11:48:23;;;;;;;5.20;2.33;;;17.00;65.00;;;;;;6223202;23;20408;-52
2022/05/01 11:50:53;;;;;;;7.83;2.53;;;17.00;65.20;;;;;;6223553;23;20432;-50
2022/05/01 11:53:22;;;;;;;5.77;2.67;;;17.10;65.00;;;;;;6223367;23;20410;-50
2022/05/01 12:04:30;;;;;;;3.57;2.70;;;17.00;64.80;;;;;;6223595;23;20443;-51
2022/05/01 12:07:02;;;;;;;5.10;2.60;;;17.00;65.30;;;;;;6222713;23;20452;-53
2022/05/01 12:09:30;;;;;;;7.67;2.90;;;16.90;66.00;;;;;;6224060;23;20519;-49
2022/05/01 12:11:57;;;;;;;4.13;2.53;;;16.90;66.60;;;;;;6223686;23;20675;-48
2022/05/01 12:14:25;;;;;;;3.93;2.50;;;16.90;67.40;;;;;;6224362;23;20438;-51
2022/05/01 12:16:52;;;;;;;3.50;2.53;;;16.80;66.80;;;;;;6224050;23;20442;-53
2022/05/01 12:19:20;;;;;;;3.90;2.50;;;16.80;66.80;;;;;;6223512;23;20404;-52
2022/05/01 12:21:46;;;;;;;4.07;3.23;;;16.80;66.10;;;;;;6223288;23;20930;-52
2022/05/01 12:24:13;;;;;;;4.80;3.13;;;16.90;64.50;;;;;;6222979;23;20408;-52
2022/05/01 12:26:49;;;;;;;4.00;3.07;;;16.90;64.70;;;;;;6223086;23;20538;-53
2022/05/01 12:29:16;;;;;;;4.03;3.10;;;17.00;65.00;;;;;;6222188;23;20432;-47
2022/05/01 12:32:07;;;;;;;6.53;3.10;;;17.00;64.70;;;;;;6223499;23;20414;-52
2022/05/01 12:34:36;;;;;;;6.90;3.40;;;17.00;64.40;;;;;;6223703;23;20428;-51
2022/05/01 12:37:05;;;;;;;5.23;3.63;;;17.00;63.20;;;;;;6223591;23;20442;-50
2022/05/01 12:39:32;;;;;;;5.87;3.87;;;17.00;63.90;;;;;;6223862;23;20475;-49
2022/05/01 12:45:12;;;;;;;4.07;3.10;;;17.10;64.00;;;;;;6218531;23;20461;-52
2022/05/01 12:47:42;;;;;;;3.47;2.77;;;17.20;63.10;;;;;;6218611;23;20446;-54
2022/05/01 12:50:11;;;;;;;3.97;2.70;;;17.10;62.90;;;;;;6218326;23;20466;-53
2022/05/01 12:52:39;;;;;;;5.37;3.53;;;17.10;62.30;;;;;;6232063;23;20427;-47
2022/05/01 12:55:08;;;;;;;3.63;3.10;;;17.10;62.10;;;;;;6240895;23;20877;-51
2022/05/01 12:57:36;;;;;;;4.97;3.30;;;17.10;62.60;;;;;;6242314;23;20410;-44
2022/05/01 13:00:03;;;;;;;5.33;2.47;;;17.10;62.40;;;;;;6242468;22;20400;-55
2022/05/01 13:02:30;;;;;;;5.40;3.30;;;17.10;64.00;;;;;;6241320;23;20435;-45
2022/05/01 13:05:03;;;;;;;4.37;3.17;;;17.00;63.30;;;;;;6241041;23;20387;-50
2022/05/01 13:07:34;;;;;;;6.07;2.53;;;16.90;63.30;;;;;;6240226;23;20447;-48
2022/05/01 13:10:04;;;;;;;3.53;2.57;;;16.90;64.30;;;;;;6241019;23;20412;-53
2022/05/01 13:12:32;;;;;;;4.60;2.60;;;16.90;65.10;;;;;;6240561;23;20424;-50
2022/05/01 13:15:02;;;;;;;4.40;2.83;;;17.00;65.40;;;;;;6240439;23;20408;-50
2022/05/01 13:17:29;;;;;;;5.33;2.80;;;17.00;65.00;;;;;;6240352;23;20434;-50
2022/05/01 13:19:58;;;;;;;2.93;2.63;;;17.00;65.30;;;;;;6240510;23;20400;-53
2022/05/01 13:22:25;;;;;;;4.03;2.67;;;17.00;65.30;;;;;;6239740;23;20435;-52
2022/05/01 13:24:54;;;;;;;3.27;2.63;;;17.00;64.40;;;;;;6240338;23;20400;-52
2022/05/01 13:27:22;;;;;;;4.73;3.23;;;17.00;64.60;;;;;;6241790;23;20447;-53
2022/05/01 13:29:49;;;;;;;3.50;2.20;;;17.00;64.30;;;;;;6241323;23;20439;-56
2022/05/01 13:32:18;;;;;;;4.20;2.27;;;16.90;64.40;;;;;;6240447;23;20428;-52
2022/05/01 13:34:45;;;;;;;5.60;2.77;;;16.90;64.70;;;;;;6240598;23;20416;-46